createdAt,value
2022-11-17T00:01:59.501Z,98340.06
2022-11-17T00:04:29.361Z,98333.97
2022-11-17T00:06:58.080Z,98334.03
2022-11-17T00:09:25.157Z,98346.47
2022-11-17T00:12:10.852Z,98338.28
2022-11-17T00:14:39.504Z,98345.97
2022-11-17T00:17:10.155Z,98331.44
2022-11-17T00:19:55.750Z,98338.66
2022-11-17T00:22:24.161Z,98335.19
2022-11-17T00:24:51.553Z,98324.91
2022-11-17T00:27:18.331Z,98320.69
2022-11-17T00:29:45.005Z,98320.69
2022-11-17T00:32:34.527Z,98318.09
2022-11-17T00:35:01.294Z,98312.06
2022-11-17T00:37:30.213Z,98306.53
2022-11-17T00:40:00.803Z,98289.06
2022-11-17T00:42:27.986Z,98288.59
2022-11-17T00:44:55.659Z,98292.56
2022-11-17T00:47:22.712Z,98271.66
2022-11-17T00:49:49.703Z,98283.38
2022-11-17T00:52:16.244Z,98265.84
2022-11-17T00:54:42.808Z,98267.78
2022-11-17T00:57:09.329Z,98266.47
2022-11-17T00:59:39.001Z,98256.69
2022-11-17T01:02:09.354Z,98246.84
2022-11-17T01:04:35.823Z,98249.28
2022-11-17T01:07:02.400Z,98241.31
2022-11-17T01:09:28.907Z,98231.56
2022-11-17T01:11:55.378Z,98232.38
2022-11-17T01:14:25.486Z,98233.19
2022-11-17T01:16:53.219Z,98209.06
2022-11-17T01:19:20.811Z,98210.44
2022-11-17T01:21:47.552Z,98198.75
2022-11-17T01:24:16.406Z,98146.50
2022-11-17T01:26:45.312Z,98149.97
2022-11-17T01:29:19.063Z,98165.38
2022-11-17T01:31:50.444Z,98165.09
2022-11-17T01:34:17.605Z,98160.59
2022-11-17T01:37:03.503Z,98151.59
2022-11-17T01:39:32.873Z,98155.56
2022-11-17T01:42:05.480Z,98150.00
2022-11-17T01:44:53.474Z,98143.63
2022-11-17T01:47:28.660Z,98137.03
2022-11-17T01:50:00.943Z,98139.13
2022-11-17T01:52:29.478Z,98107.34
2022-11-17T01:54:59.706Z,98132.78
2022-11-17T01:57:38.465Z,98114.50
2022-11-17T02:00:08.402Z,98113.16
2022-11-17T02:02:37.212Z,98109.19
2022-11-17T02:05:07.020Z,98101.50
2022-11-17T02:07:38.241Z,98107.63
2022-11-17T02:10:06.731Z,98103.41
2022-11-17T02:12:37.982Z,98103.41
2022-11-17T02:15:12.497Z,98106.81
2022-11-17T02:17:42.287Z,98097.28
2022-11-17T02:20:14.850Z,98097.25
2022-11-17T02:22:50.140Z,98108.88
2022-11-17T02:25:31.633Z,98099.63
2022-11-17T02:28:26.278Z,98092.47
2022-11-17T02:31:20.393Z,98094.56
2022-11-17T02:33:54.492Z,98083.16
2022-11-17T02:36:26.298Z,98081.59
2022-11-17T02:39:18.375Z,98071.78
2022-11-17T02:41:50.526Z,98069.91
2022-11-17T02:44:26.302Z,98067.25
2022-11-17T02:47:12.745Z,98058.53
2022-11-17T02:49:44.578Z,98039.47
2022-11-17T02:52:11.904Z,98056.66
2022-11-17T02:54:38.485Z,98050.56
2022-11-17T02:57:04.929Z,98046.31
2022-11-17T02:59:35.811Z,98047.94
2022-11-17T03:02:25.220Z,98031.25
2022-11-17T03:05:20.092Z,98022.22
2022-11-17T03:08:09.640Z,98027.50
2022-11-17T03:10:44.856Z,98033.88
2022-11-17T03:13:45.102Z,98024.13
2022-11-17T03:16:30.148Z,98038.13
2022-11-17T03:19:21.349Z,98027.28
2022-11-17T03:21:55.506Z,98021.69
2022-11-17T03:24:34.618Z,98011.91
2022-11-17T03:27:10.913Z,98000.28
2022-11-17T03:29:41.516Z,97990.47
2022-11-17T03:32:09.399Z,97991.84
2022-11-17T03:34:40.777Z,97997.88
2022-11-17T03:37:10.615Z,98012.47
2022-11-17T03:39:43.018Z,97994.22
2022-11-17T03:42:15.591Z,97984.44
2022-11-17T03:44:48.121Z,97926.97
2022-11-17T03:47:16.076Z,97925.66
2022-11-17T03:49:54.964Z,97911.38
2022-11-17T03:52:21.951Z,97922.75
2022-11-17T03:54:48.817Z,97928.06
2022-11-17T03:57:35.029Z,97925.41
2022-11-17T04:00:13.099Z,97928.31
2022-11-17T04:02:43.900Z,97924.59
2022-11-17T04:05:11.286Z,97923.31
2022-11-17T04:07:40.511Z,97923.31
2022-11-17T04:10:10.268Z,97909.25
2022-11-17T04:12:55.811Z,97911.63
2022-11-17T04:15:41.058Z,97906.88
2022-11-17T04:18:07.637Z,97898.66
2022-11-17T04:20:37.431Z,97894.66
2022-11-17T04:23:09.034Z,97899.72
2022-11-17T04:26:00.872Z,97900.22
2022-11-17T04:28:38.017Z,97899.44
2022-11-17T04:31:17.471Z,97889.13
2022-11-17T04:33:46.373Z,97902.09
2022-11-17T04:36:17.826Z,97890.16
2022-11-17T04:38:46.709Z,97895.44
2022-11-17T04:41:33.629Z,97904.72
2022-11-17T04:44:01.591Z,97890.69
2022-11-17T04:46:30.159Z,97895.13
2022-11-17T04:48:58.035Z,97897.25
2022-11-17T04:51:26.489Z,97884.50
2022-11-17T04:53:53.711Z,97849.81
2022-11-17T04:56:21.694Z,97863.63
2022-11-17T04:58:48.319Z,97849.03
2022-11-17T05:01:17.435Z,97834.97
2022-11-17T05:04:01.150Z,97853.25
2022-11-17T05:06:31.999Z,97857.47
2022-11-17T05:09:00.494Z,97845.78
2022-11-17T05:11:47.366Z,97864.25
2022-11-17T05:14:16.738Z,97857.41
2022-11-17T05:17:08.668Z,97853.41
2022-11-17T05:19:38.748Z,97854.19
2022-11-17T05:22:25.196Z,97857.59
2022-11-17T05:24:52.977Z,97860.53
2022-11-17T05:27:20.973Z,97860.00
2022-11-17T05:29:47.590Z,97858.38
2022-11-17T05:32:14.260Z,97865.78
2022-11-17T05:34:40.897Z,97861.00
2022-11-17T05:37:07.524Z,97867.34
2022-11-17T05:39:33.985Z,97864.97
2022-11-17T05:42:00.513Z,97867.31
2022-11-17T05:44:27.110Z,97862.53
2022-11-17T05:46:53.774Z,97878.16
2022-11-17T05:49:20.252Z,97881.81
2022-11-17T05:51:52.476Z,97870.72
2022-11-17T05:54:19.488Z,97870.19
2022-11-17T05:56:52.244Z,97881.81
2022-11-17T05:59:32.517Z,97877.06
2022-11-17T06:02:38.831Z,97880.75
2022-11-17T06:05:06.032Z,97888.94
2022-11-17T06:07:32.595Z,97895.50
2022-11-17T06:09:59.138Z,97891.28
2022-11-17T06:12:25.834Z,97895.50
2022-11-17T06:14:52.269Z,97897.09
2022-11-17T06:17:38.828Z,97907.44
2022-11-17T06:20:13.305Z,97892.09
2022-11-17T06:22:44.061Z,97894.75
2022-11-17T06:25:14.040Z,97902.41
2022-11-17T06:27:41.477Z,97908.72
2022-11-17T06:30:08.315Z,97919.28
2022-11-17T06:32:38.130Z,97910.81
2022-11-17T06:35:06.981Z,97914.00
2022-11-17T06:37:33.761Z,97925.69
2022-11-17T06:40:00.289Z,97920.94
2022-11-17T06:42:45.212Z,97913.50
2022-11-17T06:45:12.146Z,97916.13
2022-11-17T06:47:38.828Z,97922.75
2022-11-17T06:50:06.374Z,97934.16
2022-11-17T06:52:32.869Z,97943.66
2022-11-17T06:54:59.356Z,97918.03
2022-11-17T06:57:26.074Z,97944.16
2022-11-17T06:59:52.852Z,97938.88
2022-11-17T07:02:19.383Z,97937.06
2022-11-17T07:04:45.847Z,97946.56
2022-11-17T07:07:13.047Z,97935.44
2022-11-17T07:09:39.620Z,97947.84
2022-11-17T07:12:06.113Z,97951.84
2022-11-17T07:14:32.954Z,97957.13
2022-11-17T07:17:01.740Z,97955.53
2022-11-17T07:19:28.193Z,97953.38
2022-11-17T07:21:54.663Z,97965.56
2022-11-17T07:24:21.113Z,97943.31
2022-11-17T07:26:47.998Z,97969.72
2022-11-17T07:29:14.487Z,97977.38
2022-11-17T07:31:40.941Z,97973.72
2022-11-17T07:34:07.556Z,97989.78
2022-11-17T07:36:34.273Z,97990.25
2022-11-17T07:39:00.959Z,98006.34
2022-11-17T07:41:27.591Z,98005.56
2022-11-17T07:43:54.036Z,97998.69
2022-11-17T07:46:20.499Z,98019.81
2022-11-17T07:48:46.977Z,98028.50
2022-11-17T07:51:14.149Z,98024.28
2022-11-17T07:53:40.961Z,98054.16
2022-11-17T07:56:09.716Z,98047.28
2022-11-17T07:58:37.633Z,98053.16
2022-11-17T08:01:11.730Z,98053.69
2022-11-17T08:03:38.299Z,98056.03
2022-11-17T08:06:07.216Z,98056.03
2022-11-17T08:08:34.818Z,98060.03
2022-11-17T08:11:07.601Z,98061.09
2022-11-17T08:13:34.873Z,98060.00
2022-11-17T08:16:01.906Z,98067.16
2022-11-17T08:18:29.762Z,98071.66
2022-11-17T08:21:07.517Z,98072.13
2022-11-17T08:23:34.271Z,98070.56
2022-11-17T08:26:02.097Z,98057.91
2022-11-17T08:28:28.589Z,98070.84
2022-11-17T08:30:55.985Z,98073.00
2022-11-17T08:33:22.618Z,98074.31
2022-11-17T08:35:49.121Z,98075.34
2022-11-17T08:38:15.681Z,98082.69
2022-11-17T08:40:42.945Z,98092.50
2022-11-17T08:43:09.511Z,98084.81
2022-11-17T08:45:36.159Z,98100.97
2022-11-17T08:48:04.236Z,98089.59
2022-11-17T08:50:30.965Z,98084.88
2022-11-17T08:52:57.482Z,98088.84
2022-11-17T08:55:26.413Z,98090.47
2022-11-17T08:57:53.143Z,98101.50
2022-11-17T09:00:21.907Z,98096.16
2022-11-17T09:02:49.926Z,98110.78
2022-11-17T09:05:16.469Z,98112.38
2022-11-17T09:07:43.460Z,98100.97
2022-11-17T09:10:11.181Z,98109.19
2022-11-17T09:12:38.346Z,98098.59
2022-11-17T09:15:08.068Z,98122.16
2022-11-17T09:17:34.984Z,98119.41
2022-11-17T09:20:01.564Z,98131.56
2022-11-17T09:22:28.089Z,98141.06
2022-11-17T09:24:54.604Z,98135.22
2022-11-17T09:27:21.111Z,98138.31
2022-11-17T09:29:50.620Z,98151.53
2022-11-17T09:32:19.399Z,98153.38
2022-11-17T09:34:46.269Z,98157.31
2022-11-17T09:37:12.765Z,98150.69
2022-11-17T09:39:39.537Z,98168.19
2022-11-17T09:42:06.644Z,98156.34
2022-11-17T09:44:40.535Z,98180.63
2022-11-17T09:47:28.762Z,98181.63
2022-11-17T09:50:22.346Z,98175.53
2022-11-17T09:53:07.878Z,98196.66
2022-11-17T09:55:40.981Z,98203.56
2022-11-17T09:58:26.948Z,98205.41
2022-11-17T10:00:54.712Z,98202.19
2022-11-17T10:03:25.608Z,98211.25
2022-11-17T10:05:53.253Z,98206.22
2022-11-17T10:08:58.451Z,98166.66
2022-11-17T10:11:33.097Z,98185.44
2022-11-17T10:14:22.456Z,98171.75
2022-11-17T10:16:57.438Z,98194.59
2022-11-17T10:19:28.038Z,98198.41
2022-11-17T10:22:19.467Z,98197.94
2022-11-17T10:24:55.660Z,98204.63
2022-11-17T10:27:25.106Z,98201.78
2022-11-17T10:30:04.438Z,98210.56
2022-11-17T10:32:36.957Z,98201.06
2022-11-17T10:35:31.239Z,98217.69
2022-11-17T10:38:20.996Z,98223.03
2022-11-17T10:40:51.678Z,98220.94
2022-11-17T10:43:25.866Z,98227.09
2022-11-17T10:46:07.516Z,98221.34
2022-11-17T10:48:35.835Z,98235.38
2022-11-17T10:51:21.636Z,98229.59
2022-11-17T10:54:17.279Z,98230.53
2022-11-17T10:56:53.857Z,98226.19
2022-11-17T10:59:32.164Z,98221.53
2022-11-17T11:02:33.458Z,98208.63
2022-11-17T11:05:18.027Z,98225.63
2022-11-17T11:07:45.221Z,98223.28
2022-11-17T11:10:19.819Z,98230.66
2022-11-17T11:12:56.862Z,98247.66
2022-11-17T11:15:27.750Z,98250.84
2022-11-17T11:17:54.456Z,98276.00
2022-11-17T11:20:31.695Z,98277.16
2022-11-17T11:23:06.206Z,98292.25
2022-11-17T11:25:45.941Z,98296.03
2022-11-17T11:28:15.338Z,98313.25
2022-11-17T11:31:04.909Z,98333.41
2022-11-17T11:33:39.066Z,98333.91
2022-11-17T11:36:15.476Z,98349.06
2022-11-17T11:39:06.734Z,98364.19
2022-11-17T11:42:10.414Z,98348.31
2022-11-17T11:44:36.912Z,98358.91
2022-11-17T11:47:27.772Z,98367.63
2022-11-17T11:50:01.645Z,98373.59
2022-11-17T11:52:34.782Z,98379.75
2022-11-17T11:55:05.906Z,98394.84
2022-11-17T11:57:38.906Z,98399.41
2022-11-17T12:00:14.712Z,98410.22
2022-11-17T12:02:52.377Z,98418.09
2022-11-17T12:05:37.518Z,98415.41
2022-11-17T12:08:25.485Z,98430.50
2022-11-17T12:10:58.918Z,98437.38
2022-11-17T12:13:27.045Z,98425.00
2022-11-17T12:16:26.244Z,98440.44
2022-11-17T12:18:53.062Z,98449.53
2022-11-17T12:21:27.250Z,98444.28
2022-11-17T12:24:06.055Z,98453.81
2022-11-17T12:26:33.619Z,98467.38
2022-11-17T12:29:22.039Z,98475.56
2022-11-17T12:31:57.974Z,98486.13
2022-11-17T12:34:30.551Z,98495.59
2022-11-17T12:37:15.303Z,98497.97
2022-11-17T12:40:01.622Z,98506.91
2022-11-17T12:42:30.627Z,98515.09
2022-11-17T12:45:00.322Z,98509.56
2022-11-17T12:47:41.090Z,98509.41
2022-11-17T12:50:20.289Z,98510.56
2022-11-17T12:53:05.603Z,98504.25
2022-11-17T12:55:57.554Z,98503.22
2022-11-17T12:58:36.083Z,98502.75
2022-11-17T13:01:32.678Z,98499.03
2022-11-17T13:04:06.549Z,98511.78
2022-11-17T13:06:35.793Z,98531.88
2022-11-17T13:09:27.353Z,98526.56
2022-11-17T13:12:08.108Z,98546.91
2022-11-17T13:14:36.929Z,98553.56
2022-11-17T13:17:04.323Z,98555.41
2022-11-17T13:19:33.362Z,98568.47
2022-11-17T13:22:14.116Z,98562.34
2022-11-17T13:24:44.999Z,98565.56
2022-11-17T13:27:26.686Z,98565.06
2022-11-17T13:30:16.258Z,98579.06
2022-11-17T13:32:42.927Z,98584.38
2022-11-17T13:35:21.908Z,98597.63
2022-11-17T13:38:19.953Z,98593.72
2022-11-17T13:40:48.630Z,98593.72
2022-11-17T13:43:18.359Z,98603.28
2022-11-17T13:45:45.858Z,98604.63
2022-11-17T13:48:32.289Z,98609.66
2022-11-17T13:51:14.983Z,98610.22
2022-11-17T13:54:06.809Z,98618.44
2022-11-17T13:56:49.393Z,98622.66
2022-11-17T13:59:22.408Z,98622.19
2022-11-17T14:01:48.997Z,98627.81
2022-11-17T14:04:23.894Z,98632.56
2022-11-17T14:07:02.431Z,98627.84
2022-11-17T14:09:31.835Z,98635.81
2022-11-17T14:11:59.420Z,98637.59
2022-11-17T14:14:42.094Z,98646.59
2022-11-17T14:17:29.237Z,98647.66
2022-11-17T14:19:55.855Z,98654.25
2022-11-17T14:22:30.958Z,98655.84
2022-11-17T14:24:58.448Z,98654.78
2022-11-17T14:27:27.788Z,98664.38
2022-11-17T14:29:54.384Z,98678.34
2022-11-17T14:32:21.341Z,98677.56
2022-11-17T14:34:47.933Z,98669.88
2022-11-17T14:37:14.561Z,98675.66
2022-11-17T14:39:41.136Z,98679.66
2022-11-17T14:42:08.976Z,98689.19
2022-11-17T14:44:35.476Z,98692.34
2022-11-17T14:47:02.121Z,98691.31
2022-11-17T14:49:28.769Z,98701.63
2022-11-17T14:51:57.245Z,98687.59
2022-11-17T14:54:23.874Z,98699.81
2022-11-17T14:56:50.432Z,98702.50
2022-11-17T14:59:17.220Z,98702.50
2022-11-17T15:01:43.960Z,98708.38
2022-11-17T15:04:43.058Z,98717.34
2022-11-17T15:07:01.138Z,98726.06
2022-11-17T15:09:27.946Z,98735.00
2022-11-17T15:11:54.509Z,98737.28
2022-11-17T15:14:21.081Z,98740.94
2022-11-17T15:16:47.716Z,98747.56
2022-11-17T15:19:14.418Z,98749.84
2022-11-17T15:21:41.038Z,98744.78
2022-11-17T15:24:09.577Z,98754.38
2022-11-17T15:26:36.203Z,98757.50
2022-11-17T15:29:02.878Z,98754.84
2022-11-17T15:31:29.797Z,98764.81
2022-11-17T15:33:56.401Z,98764.00
2022-11-17T15:36:23.443Z,98759.53
2022-11-17T15:38:50.364Z,98764.81
2022-11-17T15:41:17.103Z,98779.09
2022-11-17T15:43:45.063Z,98789.47
2022-11-17T15:46:13.869Z,98780.41
2022-11-17T15:48:43.221Z,98795.00
2022-11-17T15:51:14.999Z,98797.03
2022-11-17T15:53:43.918Z,98793.25
2022-11-17T15:56:19.489Z,98797.19
2022-11-17T15:58:47.880Z,98798.47
2022-11-17T16:01:33.869Z,98810.19
2022-11-17T16:04:03.026Z,98813.56
2022-11-17T16:06:31.047Z,98803.19
2022-11-17T16:08:57.789Z,98811.97
2022-11-17T16:11:26.873Z,98813.78
2022-11-17T16:13:57.738Z,98815.66
2022-11-17T16:16:26.580Z,98809.72
2022-11-17T16:18:53.397Z,98818.16
2022-11-17T16:21:20.708Z,98824.16
2022-11-17T16:23:49.519Z,98829.94
2022-11-17T16:26:17.810Z,98834.66
2022-11-17T16:28:44.438Z,98836.94
2022-11-17T16:31:22.281Z,98840.03
2022-11-17T16:33:54.131Z,98838.13
2022-11-17T16:36:23.239Z,98843.56
2022-11-17T16:39:02.088Z,98842.19
2022-11-17T16:41:32.609Z,98846.03
2022-11-17T16:43:59.974Z,98855.38
2022-11-17T16:46:29.461Z,98857.00
2022-11-17T16:48:57.007Z,98853.88
2022-11-17T16:51:24.765Z,98850.44
2022-11-17T16:54:02.945Z,98854.47
2022-11-17T16:56:30.283Z,98863.75
2022-11-17T16:58:57.104Z,98850.09
2022-11-17T17:01:30.251Z,98857.50
2022-11-17T17:04:01.260Z,98853.38
2022-11-17T17:06:28.328Z,98870.31
2022-11-17T17:09:05.511Z,98863.09
2022-11-17T17:11:33.907Z,98869.41
2022-11-17T17:14:03.137Z,98877.66
2022-11-17T17:16:31.603Z,98884.94
2022-11-17T17:19:00.623Z,98878.06
2022-11-17T17:21:28.933Z,98880.69
2022-11-17T17:23:56.396Z,98875.41
2022-11-17T17:26:25.850Z,98885.66
2022-11-17T17:28:55.638Z,98891.50
2022-11-17T17:31:23.933Z,98902.47
2022-11-17T17:33:51.526Z,98901.91
2022-11-17T17:36:23.458Z,98898.53
2022-11-17T17:38:55.596Z,98903.50
2022-11-17T17:41:25.292Z,98906.47
2022-11-17T17:44:01.322Z,98917.06
2022-11-17T17:46:30.348Z,98908.66
2022-11-17T17:48:57.527Z,98913.94
2022-11-17T17:51:25.711Z,98918.66
2022-11-17T17:53:54.205Z,98912.59
2022-11-17T17:56:21.860Z,98928.69
2022-11-17T17:58:50.705Z,98936.19
2022-11-17T18:01:25.980Z,98942.47
2022-11-17T18:03:54.324Z,98945.03
2022-11-17T18:06:22.257Z,98962.06
2022-11-17T18:08:50.126Z,98956.53
2022-11-17T18:11:19.718Z,98951.72
2022-11-17T18:13:51.335Z,98953.78
2022-11-17T18:16:24.043Z,98949.41
2022-11-17T18:18:55.420Z,98953.31
2022-11-17T18:21:22.139Z,98945.25
2022-11-17T18:23:48.721Z,98956.31
2022-11-17T18:26:21.431Z,98952.31
2022-11-17T18:28:56.239Z,98950.44
2022-11-17T18:31:25.423Z,98957.78
2022-11-17T18:33:57.195Z,98963.66
2022-11-17T18:36:24.869Z,98949.66
2022-11-17T18:38:52.782Z,98959.41
2022-11-17T18:41:20.869Z,98962.88
2022-11-17T18:43:47.910Z,98957.00
2022-11-17T18:46:17.354Z,98974.47
2022-11-17T18:48:46.483Z,98973.34
2022-11-17T18:51:19.821Z,98973.66
2022-11-17T18:53:47.337Z,98976.16
2022-11-17T18:56:15.973Z,98990.44
2022-11-17T18:58:43.501Z,98987.56
2022-11-17T19:01:16.386Z,98997.78
2022-11-17T19:03:44.959Z,99000.41
2022-11-17T19:06:12.905Z,99002.34
2022-11-17T19:08:41.450Z,98997.06
2022-11-17T19:11:09.727Z,99009.28
2022-11-17T19:13:38.488Z,99006.63
2022-11-17T19:16:21.603Z,99006.28
2022-11-17T19:18:50.000Z,99009.38
2022-11-17T19:21:24.103Z,99004.88
2022-11-17T19:23:52.211Z,99009.59
2022-11-17T19:26:19.116Z,99012.03
2022-11-17T19:28:45.996Z,99015.31
2022-11-17T19:31:17.873Z,99022.59
2022-11-17T19:33:46.054Z,99022.22
2022-11-17T19:36:15.432Z,99036.94
2022-11-17T19:38:43.239Z,99041.09
2022-11-17T19:41:15.682Z,99035.22
2022-11-17T19:43:45.466Z,99044.38
2022-11-17T19:46:16.768Z,99037.50
2022-11-17T19:48:44.229Z,99045.78
2022-11-17T19:51:17.302Z,99048.44
2022-11-17T19:53:44.178Z,99059.69
2022-11-17T19:56:10.827Z,99070.13
2022-11-17T19:58:37.784Z,99069.97
2022-11-17T20:01:15.647Z,99072.41
2022-11-17T20:03:43.134Z,99076.28
2022-11-17T20:06:12.079Z,99088.47
2022-11-17T20:08:39.253Z,99079.38
2022-11-17T20:11:07.347Z,99078.78
2022-11-17T20:13:35.024Z,99093.16
2022-11-17T20:16:07.409Z,99084.88
2022-11-17T20:18:36.961Z,99085.34
2022-11-17T20:21:05.377Z,99072.34
2022-11-17T20:23:36.050Z,99083.56
2022-11-17T20:26:04.373Z,99097.00
2022-11-17T20:28:35.366Z,99088.84
2022-11-17T20:31:24.317Z,99090.69
2022-11-17T20:33:52.104Z,99083.44
2022-11-17T20:36:20.531Z,99087.34
2022-11-17T20:38:57.987Z,99092.03
2022-11-17T20:41:25.436Z,99096.84
2022-11-17T20:43:53.992Z,99087.25
2022-11-17T20:46:21.717Z,99096.06
2022-11-17T20:48:49.034Z,99096.50
2022-11-17T20:51:25.697Z,99102.22
2022-11-17T20:53:52.761Z,99098.06
2022-11-17T20:56:19.743Z,99113.47
2022-11-17T20:58:46.357Z,99111.84
2022-11-17T21:01:18.436Z,99115.28
2022-11-17T21:03:45.807Z,99109.13
2022-11-17T21:06:13.497Z,99111.09
2022-11-17T21:08:41.941Z,99109.91
2022-11-17T21:11:33.698Z,99115.66
2022-11-17T21:14:01.135Z,99122.56
2022-11-17T21:16:28.254Z,99125.63
2022-11-17T21:18:54.870Z,99122.75
2022-11-17T21:21:21.361Z,99123.66
2022-11-17T21:23:48.071Z,99131.66
2022-11-17T21:26:19.007Z,99139.78
2022-11-17T21:28:46.790Z,99141.03
2022-11-17T21:31:15.932Z,99140.16
2022-11-17T21:33:44.166Z,99135.09
2022-11-17T21:36:16.020Z,99142.81
2022-11-17T21:38:44.483Z,99143.03
2022-11-17T21:41:20.260Z,99146.25
2022-11-17T21:43:48.782Z,99147.13
2022-11-17T21:46:23.121Z,99151.38
2022-11-17T21:48:51.076Z,99152.03
2022-11-17T21:51:21.523Z,99145.50
2022-11-17T21:53:52.431Z,99149.53
2022-11-17T21:56:18.960Z,99147.72
2022-11-17T21:58:45.481Z,99153.59
2022-11-17T22:01:14.358Z,99158.88
2022-11-17T22:03:41.686Z,99157.81
2022-11-17T22:06:18.158Z,99164.75
2022-11-17T22:08:46.403Z,99162.59
2022-11-17T22:11:37.982Z,99168.09
2022-11-17T22:14:31.523Z,99161.84
2022-11-17T22:16:58.042Z,99163.91
2022-11-17T22:19:27.728Z,99168.97
2022-11-17T22:21:54.963Z,99167.63
2022-11-17T22:24:21.832Z,99164.81
2022-11-17T22:26:48.470Z,99164.19
2022-11-17T22:29:18.157Z,99161.41
2022-11-17T22:31:46.339Z,99165.94
2022-11-17T22:34:13.839Z,99167.38
2022-11-17T22:36:40.413Z,99160.22
2022-11-17T22:39:07.004Z,99157.56
2022-11-17T22:41:33.528Z,99155.75
2022-11-17T22:44:00.501Z,99150.03
2022-11-17T22:46:28.553Z,99155.53
2022-11-17T22:48:55.325Z,99152.97
2022-11-17T22:51:40.845Z,99157.22
2022-11-17T22:54:08.630Z,99163.91
2022-11-17T22:56:35.915Z,99163.69
2022-11-17T22:59:02.562Z,99161.06
2022-11-17T23:01:29.372Z,99162.72
2022-11-17T23:03:56.028Z,99167.63
2022-11-17T23:06:22.874Z,99162.41
2022-11-17T23:08:50.102Z,99165.72
2022-11-17T23:14:03.866Z,99158.59
2022-11-17T23:16:30.365Z,99167.53
2022-11-17T23:18:57.419Z,99163.22
2022-11-17T23:21:24.455Z,99162.13
2022-11-17T23:23:51.500Z,99167.19
2022-11-17T23:26:18.112Z,99172.69
2022-11-17T23:28:45.420Z,99188.13
2022-11-17T23:31:16.138Z,99185.16
2022-11-17T23:33:44.888Z,99191.16
2022-11-17T23:36:16.763Z,99192.78
2022-11-17T23:38:43.471Z,99192.41
2022-11-17T23:41:13.299Z,99201.72
2022-11-17T23:43:40.675Z,99203.91
2022-11-17T23:46:09.881Z,99206.78
2022-11-17T23:48:36.498Z,99207.00
2022-11-17T23:51:22.711Z,99205.59
2022-11-17T23:53:52.361Z,99214.03
2022-11-17T23:56:22.619Z,99212.59
2022-11-17T23:58:50.052Z,99216.69
